createdAt,value
2023-03-30T00:02:07.898Z,25.80
2023-03-30T00:04:37.680Z,21.20
2023-03-30T00:07:05.758Z,21.63
2023-03-30T00:09:33.466Z,25.13
2023-03-30T00:12:03.586Z,20.42
2023-03-30T00:14:31.354Z,21.40
2023-03-30T00:16:59.201Z,19.15
2023-03-30T00:19:26.921Z,18.98
2023-03-30T00:21:54.735Z,21.30
2023-03-30T00:24:22.733Z,21.13
2023-03-30T00:26:50.475Z,21.77
2023-03-30T00:29:18.252Z,23.88
2023-03-30T00:31:46.426Z,16.92
2023-03-30T00:34:14.174Z,18.40
2023-03-30T00:36:42.149Z,19.70
2023-03-30T00:39:10.168Z,18.02
2023-03-30T00:41:37.873Z,20.08
2023-03-30T00:44:47.333Z,20.77
2023-03-30T00:47:17.232Z,20.15
2023-03-30T00:49:45.316Z,19.17
2023-03-30T00:52:13.472Z,17.73
2023-03-30T00:54:41.656Z,16.05
2023-03-30T00:57:09.730Z,15.75
2023-03-30T00:59:37.595Z,16.30
2023-03-30T01:02:06.446Z,17.17
2023-03-30T01:04:37.774Z,14.80
2023-03-30T01:07:07.646Z,15.63
2023-03-30T01:09:35.821Z,9.18
2023-03-30T01:12:05.788Z,9.45
2023-03-30T01:14:33.903Z,7.05
2023-03-30T01:17:32.583Z,7.18
2023-03-30T01:23:12.851Z,6.28
2023-03-30T01:26:18.627Z,7.05
2023-03-30T01:29:08.827Z,9.15
2023-03-30T01:32:01.260Z,8.00
2023-03-30T01:35:05.970Z,5.82
2023-03-30T01:37:55.602Z,7.72
2023-03-30T01:40:38.703Z,6.43
2023-03-30T01:43:27.186Z,6.00
2023-03-30T01:46:14.641Z,6.63
2023-03-30T01:48:57.497Z,6.90
2023-03-30T01:51:51.027Z,6.60
2023-03-30T01:54:32.004Z,6.63
2023-03-30T01:57:02.598Z,6.03
2023-03-30T01:59:36.944Z,11.55
2023-03-30T02:02:07.414Z,6.13
2023-03-30T02:04:39.711Z,6.40
2023-03-30T02:07:11.642Z,6.82
2023-03-30T02:09:42.325Z,6.47
2023-03-30T02:12:11.647Z,7.18
2023-03-30T02:14:41.179Z,5.75
2023-03-30T02:17:23.083Z,5.57
2023-03-30T02:19:52.026Z,5.75
2023-03-30T02:22:20.532Z,5.60
2023-03-30T02:24:51.741Z,6.20
2023-03-30T02:27:19.804Z,8.93
2023-03-30T02:29:49.334Z,6.40
2023-03-30T02:32:23.595Z,8.40
2023-03-30T02:35:00.465Z,6.90
2023-03-30T02:37:40.050Z,5.97
2023-03-30T02:40:17.231Z,5.38
2023-03-30T02:45:50.015Z,6.40
2023-03-30T02:48:24.209Z,5.32
2023-03-30T02:51:02.229Z,7.15
2023-03-30T02:54:31.804Z,7.07
2023-03-30T02:57:23.511Z,5.82
2023-03-30T02:59:56.457Z,6.68
2023-03-30T03:02:32.284Z,6.00
2023-03-30T03:05:13.494Z,6.50
2023-03-30T03:07:56.649Z,4.95
2023-03-30T03:10:24.303Z,5.53
2023-03-30T03:12:52.202Z,5.25
2023-03-30T03:15:22.468Z,6.57
2023-03-30T03:18:07.490Z,5.35
2023-03-30T03:20:36.552Z,5.53
2023-03-30T03:23:05.270Z,5.45
2023-03-30T03:25:40.888Z,5.63
2023-03-30T03:28:08.953Z,4.07
2023-03-30T03:30:41.950Z,6.35
2023-03-30T03:33:16.145Z,7.90
2023-03-30T03:35:54.319Z,4.90
2023-03-30T03:38:24.348Z,4.53
2023-03-30T03:40:54.852Z,4.90
2023-03-30T03:43:23.300Z,5.70
2023-03-30T03:45:52.056Z,4.55
2023-03-30T03:48:21.788Z,4.30
2023-03-30T03:50:56.801Z,5.28
2023-03-30T03:53:27.736Z,4.97
2023-03-30T03:56:00.461Z,5.78
2023-03-30T03:58:28.331Z,7.55
2023-03-30T04:01:01.358Z,5.63
2023-03-30T04:03:29.582Z,6.22
2023-03-30T04:06:02.633Z,5.80
2023-03-30T04:08:30.581Z,3.78
2023-03-30T04:11:11.945Z,4.10
2023-03-30T04:14:14.742Z,3.60
2023-03-30T04:17:08.784Z,5.25
2023-03-30T04:19:36.340Z,5.55
2023-03-30T04:22:42.021Z,3.88
2023-03-30T04:25:36.409Z,3.28
2023-03-30T04:28:29.862Z,5.40
2023-03-30T04:31:15.774Z,3.88
2023-03-30T04:34:14.979Z,5.65
2023-03-30T04:37:11.860Z,3.42
2023-03-30T04:39:57.862Z,3.72
2023-03-30T04:42:50.142Z,3.70
2023-03-30T04:45:43.523Z,4.90
2023-03-30T04:48:29.671Z,6.47
2023-03-30T04:51:09.662Z,5.70
2023-03-30T04:53:56.007Z,4.97
2023-03-30T04:56:26.442Z,5.53
2023-03-30T04:59:11.031Z,6.22
2023-03-30T05:01:41.446Z,4.03
2023-03-30T05:04:32.923Z,5.13
2023-03-30T05:07:19.634Z,4.88
2023-03-30T05:10:02.586Z,5.25
2023-03-30T05:12:52.850Z,4.60
2023-03-30T05:15:54.716Z,4.78
2023-03-30T05:18:40.252Z,8.02
2023-03-30T05:21:18.682Z,4.82
2023-03-30T05:23:53.042Z,4.10
2023-03-30T05:26:39.410Z,3.85
2023-03-30T05:33:43.432Z,4.25
2023-03-30T05:36:30.251Z,3.40
2023-03-30T05:47:16.782Z,4.05
2023-03-30T05:50:09.490Z,3.00
2023-03-30T05:53:04.613Z,3.90
2023-03-30T05:55:46.949Z,6.95
2023-03-30T05:58:33.216Z,2.78
2023-03-30T06:01:26.304Z,2.50
2023-03-30T06:03:54.630Z,3.13
2023-03-30T06:06:22.329Z,2.80
2023-03-30T06:08:52.275Z,3.05
2023-03-30T06:11:23.647Z,3.38
2023-03-30T06:14:00.251Z,3.47
2023-03-30T06:16:29.301Z,3.03
2023-03-30T06:18:57.692Z,4.80
2023-03-30T06:21:25.375Z,2.50
2023-03-30T06:24:15.788Z,3.30
2023-03-30T06:26:43.619Z,7.03
2023-03-30T06:29:11.221Z,3.03
2023-03-30T06:31:41.855Z,4.85
2023-03-30T06:34:33.567Z,4.30
2023-03-30T06:37:03.594Z,3.00
2023-03-30T06:39:31.245Z,5.43
2023-03-30T06:41:59.496Z,4.03
2023-03-30T06:44:46.579Z,4.32
2023-03-30T06:47:16.037Z,4.05
2023-03-30T06:49:43.608Z,3.25
2023-03-30T06:52:38.244Z,2.53
2023-03-30T06:55:07.236Z,2.70
2023-03-30T06:57:34.958Z,2.60
2023-03-30T07:00:13.586Z,4.00
2023-03-30T07:02:42.301Z,2.60
2023-03-30T07:05:24.864Z,4.38
2023-03-30T07:07:52.554Z,4.00
2023-03-30T07:10:21.790Z,2.95
2023-03-30T07:12:50.580Z,6.38
2023-03-30T07:15:19.375Z,4.00
2023-03-30T07:17:47.149Z,3.90
2023-03-30T07:20:17.443Z,5.90
2023-03-30T07:23:07.315Z,3.28
2023-03-30T07:25:35.012Z,6.00
2023-03-30T07:28:10.908Z,5.82
2023-03-30T07:30:39.244Z,3.10
2023-03-30T07:33:10.545Z,5.47
2023-03-30T07:35:45.299Z,4.43
2023-03-30T07:38:14.728Z,3.13
2023-03-30T07:40:47.517Z,6.78
2023-03-30T07:43:16.268Z,3.25
2023-03-30T07:45:45.277Z,4.28
2023-03-30T07:48:23.044Z,8.65
2023-03-30T07:51:07.002Z,4.47
2023-03-30T07:53:56.726Z,4.47
2023-03-30T07:57:35.637Z,8.65
2023-03-30T08:09:32.111Z,5.80
2023-03-30T08:12:33.559Z,6.45
2023-03-30T08:15:10.887Z,3.97
2023-03-30T08:21:19.557Z,4.85
2023-03-30T08:23:50.802Z,2.97
2023-03-30T08:26:19.150Z,5.22
2023-03-30T08:28:46.745Z,6.20
2023-03-30T08:31:18.263Z,3.92
2023-03-30T08:33:46.012Z,4.25
2023-03-30T08:36:13.933Z,3.85
2023-03-30T08:38:42.108Z,3.70
2023-03-30T08:41:24.998Z,3.53
2023-03-30T08:43:57.720Z,2.33
2023-03-30T08:46:25.908Z,3.25
2023-03-30T08:48:57.979Z,3.75
2023-03-30T08:51:29.235Z,3.65
2023-03-30T08:54:01.611Z,5.30
2023-03-30T08:56:39.813Z,2.08
2023-03-30T08:59:29.671Z,3.10
2023-03-30T09:02:19.110Z,1.30
2023-03-30T09:05:32.785Z,1.98
2023-03-30T09:08:29.231Z,1.30
2023-03-30T09:11:02.537Z,2.65
2023-03-30T09:13:34.401Z,2.30
2023-03-30T09:16:20.233Z,0.90
2023-03-30T09:18:52.999Z,1.23
2023-03-30T09:21:27.361Z,2.25
2023-03-30T09:23:58.717Z,0.77
2023-03-30T09:27:08.724Z,2.10
2023-03-30T09:30:35.732Z,1.05
2023-03-30T09:34:30.156Z,4.13
2023-03-30T09:37:27.973Z,5.32
2023-03-30T09:40:24.592Z,2.58
2023-03-30T09:45:40.255Z,6.30
2023-03-30T09:48:09.082Z,1.50
2023-03-30T09:50:43.406Z,2.38
2023-03-30T09:53:26.439Z,6.68
2023-03-30T09:56:01.438Z,2.42
2023-03-30T09:59:15.363Z,1.95
2023-03-30T10:06:28.873Z,2.25
2023-03-30T10:09:23.786Z,1.42
2023-03-30T10:11:52.953Z,2.60
2023-03-30T10:14:44.910Z,1.75
2023-03-30T10:18:33.232Z,2.35
2023-03-30T10:26:05.118Z,4.53
2023-03-30T10:28:34.694Z,3.50
2023-03-30T10:31:14.153Z,5.70
2023-03-30T10:33:44.701Z,2.67
2023-03-30T10:36:16.515Z,2.97
2023-03-30T10:38:46.113Z,2.35
2023-03-30T10:41:22.389Z,1.73
2023-03-30T10:43:51.863Z,8.25
2023-03-30T10:46:23.192Z,1.98
2023-03-30T10:49:34.046Z,2.10
2023-03-30T10:52:52.208Z,5.45
2023-03-30T10:55:56.682Z,2.33
2023-03-30T10:59:04.574Z,1.48
2023-03-30T11:01:56.813Z,1.77
2023-03-30T11:05:24.751Z,2.00
2023-03-30T11:08:47.943Z,1.85
2023-03-30T11:23:40.473Z,6.68
2023-03-30T11:26:12.581Z,2.35
2023-03-30T11:28:47.994Z,4.93
2023-03-30T11:31:27.933Z,8.30
2023-03-30T11:34:24.970Z,2.28
2023-03-30T11:37:18.277Z,8.90
2023-03-30T11:40:06.170Z,7.60
2023-03-30T11:42:35.985Z,2.60
2023-03-30T11:45:30.089Z,2.03
2023-03-30T11:48:16.056Z,4.97
2023-03-30T11:51:08.168Z,3.13
2023-03-30T11:53:59.133Z,2.90
2023-03-30T11:56:47.287Z,2.15
2023-03-30T11:59:32.494Z,1.70
2023-03-30T12:02:35.754Z,2.47
2023-03-30T12:05:06.209Z,1.77
2023-03-30T12:07:44.252Z,2.47
2023-03-30T12:10:21.263Z,2.65
2023-03-30T12:12:52.090Z,3.70
2023-03-30T12:15:34.942Z,4.95
2023-03-30T12:18:36.169Z,9.85
2023-03-30T12:21:25.629Z,4.15
2023-03-30T12:24:13.409Z,3.90
2023-03-30T12:26:42.546Z,3.78
2023-03-30T12:29:52.749Z,4.22
2023-03-30T12:32:03.338Z,3.58
2023-03-30T12:34:38.156Z,4.43
2023-03-30T12:37:13.566Z,3.45
2023-03-30T12:39:49.580Z,5.30
2023-03-30T12:42:34.736Z,6.18
2023-03-30T12:45:24.144Z,4.63
2023-03-30T12:48:10.148Z,1.92
2023-03-30T12:51:02.723Z,3.65
2023-03-30T12:53:45.189Z,2.33
2023-03-30T12:56:24.826Z,3.22
2023-03-30T12:59:26.282Z,5.00
2023-03-30T13:02:31.305Z,2.15
2023-03-30T13:04:59.107Z,2.22
2023-03-30T13:07:35.256Z,3.05
2023-03-30T13:10:31.887Z,4.32
2023-03-30T13:13:02.550Z,1.65
2023-03-30T13:15:30.128Z,5.93
2023-03-30T13:18:09.882Z,6.38
2023-03-30T13:20:58.444Z,3.83
2023-03-30T13:23:34.108Z,2.50
2023-03-30T13:26:33.910Z,3.85
2023-03-30T13:29:11.735Z,2.03
2023-03-30T13:31:48.153Z,2.15
2023-03-30T13:34:34.288Z,3.83
2023-03-30T13:37:59.131Z,2.15
2023-03-30T13:40:41.904Z,5.53
2023-03-30T13:43:23.570Z,3.22
2023-03-30T13:46:16.440Z,5.40
2023-03-30T13:49:20.665Z,2.63
2023-03-30T13:51:49.389Z,4.00
2023-03-30T13:54:29.204Z,2.20
2023-03-30T13:57:07.811Z,9.40
2023-03-30T13:59:38.214Z,7.32
2023-03-30T14:02:06.553Z,4.30
2023-03-30T14:04:37.281Z,2.05
2023-03-30T14:07:14.225Z,9.52
2023-03-30T14:09:42.477Z,4.13
2023-03-30T14:12:13.884Z,3.90
2023-03-30T14:14:47.239Z,3.23
2023-03-30T14:17:21.173Z,3.17
2023-03-30T14:20:11.243Z,1.90
2023-03-30T14:22:45.005Z,3.97
2023-03-30T14:25:39.493Z,2.57
2023-03-30T14:41:14.440Z,2.33
2023-03-30T14:43:51.174Z,2.30
2023-03-30T14:46:24.521Z,7.33
2023-03-30T14:48:52.852Z,2.50
2023-03-30T14:51:35.804Z,3.77
2023-03-30T14:54:04.298Z,3.03
2023-03-30T14:56:32.253Z,2.37
2023-03-30T14:59:00.136Z,5.30
2023-03-30T15:01:31.633Z,4.17
2023-03-30T15:04:05.442Z,2.80
2023-03-30T15:06:38.431Z,2.70
2023-03-30T15:09:15.909Z,4.40
2023-03-30T15:11:46.134Z,4.43
2023-03-30T15:14:18.840Z,3.77
2023-03-30T15:16:50.765Z,5.30
2023-03-30T15:19:38.657Z,4.53
2023-03-30T15:22:34.195Z,7.72
2023-03-30T15:25:05.662Z,3.30
2023-03-30T15:27:37.621Z,3.40
2023-03-30T15:30:06.486Z,3.97
2023-03-30T15:32:38.900Z,3.50
2023-03-30T15:35:15.252Z,3.37
2023-03-30T15:37:56.672Z,4.20
2023-03-30T15:40:27.305Z,9.33
2023-03-30T15:43:13.472Z,6.60
2023-03-30T15:45:47.431Z,4.73
2023-03-30T15:48:19.075Z,10.93
2023-03-30T15:50:53.178Z,4.67
2023-03-30T15:53:53.180Z,15.77
2023-03-30T15:56:48.514Z,4.33
2023-03-30T15:59:22.058Z,6.43
2023-03-30T16:02:01.264Z,5.77
2023-03-30T16:04:31.693Z,7.97
2023-03-30T16:06:59.401Z,6.40
2023-03-30T16:09:27.503Z,6.37
2023-03-30T16:11:55.103Z,4.67
2023-03-30T16:14:22.819Z,6.87
2023-03-30T16:16:50.500Z,4.87
2023-03-30T16:19:19.886Z,9.70
2023-03-30T16:21:47.475Z,7.47
2023-03-30T16:24:14.976Z,4.40
2023-03-30T16:26:43.125Z,3.73
2023-03-30T16:29:22.874Z,5.83
2023-03-30T16:31:51.966Z,7.00
2023-03-30T16:34:20.606Z,4.80
2023-03-30T16:36:50.140Z,7.93
2023-03-30T16:39:26.679Z,6.07
2023-03-30T16:41:55.638Z,6.73
2023-03-30T16:44:24.914Z,8.53
2023-03-30T16:46:52.740Z,6.97
2023-03-30T16:49:25.430Z,8.27
2023-03-30T16:51:55.311Z,6.23
2023-03-30T16:54:32.011Z,4.90
2023-03-30T16:57:03.455Z,5.57
2023-03-30T16:59:32.484Z,9.07
2023-03-30T17:02:00.513Z,7.50
2023-03-30T17:04:28.202Z,6.07
2023-03-30T17:06:55.866Z,5.80
2023-03-30T17:09:23.584Z,5.87
2023-03-30T17:11:51.221Z,5.83
2023-03-30T17:14:20.442Z,7.77
2023-03-30T17:16:48.198Z,7.37
2023-03-30T17:19:15.972Z,5.47
2023-03-30T17:21:44.055Z,7.40
2023-03-30T17:24:12.848Z,7.90
2023-03-30T17:26:41.153Z,7.87
2023-03-30T17:29:10.540Z,6.47
2023-03-30T17:31:38.843Z,4.57
2023-03-30T17:34:07.455Z,4.90
2023-03-30T17:36:35.438Z,4.60
2023-03-30T17:39:05.810Z,8.03
2023-03-30T17:41:38.344Z,4.27
2023-03-30T17:44:06.678Z,4.93
2023-03-30T17:46:34.214Z,6.30
2023-03-30T17:49:02.185Z,7.63
2023-03-30T17:51:29.702Z,8.43
2023-03-30T17:53:57.227Z,6.50
2023-03-30T17:56:24.738Z,4.97
2023-03-30T17:58:53.325Z,6.73
2023-03-30T18:01:21.108Z,7.43
2023-03-30T18:03:53.646Z,6.93
2023-03-30T18:06:22.486Z,6.80
2023-03-30T18:08:50.153Z,5.50
2023-03-30T18:11:17.650Z,8.13
2023-03-30T18:13:45.923Z,9.10
2023-03-30T18:16:13.542Z,6.90
2023-03-30T18:18:41.041Z,6.40
2023-03-30T18:21:10.766Z,13.30
2023-03-30T18:23:38.337Z,7.53
2023-03-30T18:26:11.107Z,7.83
2023-03-30T18:28:42.512Z,8.43
2023-03-30T18:31:10.416Z,6.73
2023-03-30T18:33:39.443Z,8.90
2023-03-30T18:36:12.610Z,8.60
2023-03-30T18:38:41.131Z,6.60
2023-03-30T18:41:12.515Z,11.87
2023-03-30T18:43:40.280Z,8.17
2023-03-30T18:46:11.569Z,13.17
2023-03-30T18:48:39.206Z,7.13
2023-03-30T18:51:07.160Z,7.00
2023-03-30T18:53:35.897Z,6.67
2023-03-30T18:56:03.836Z,8.10
2023-03-30T18:58:33.882Z,5.27
2023-03-30T19:01:01.758Z,5.63
2023-03-30T19:03:30.375Z,3.90
2023-03-30T19:05:58.528Z,5.20
2023-03-30T19:08:27.009Z,6.07
2023-03-30T19:10:57.336Z,6.93
2023-03-30T19:13:26.485Z,7.43
2023-03-30T19:15:54.687Z,7.70
2023-03-30T19:18:22.798Z,11.47
2023-03-30T19:20:51.336Z,7.90
2023-03-30T19:23:21.764Z,9.50
2023-03-30T19:25:49.611Z,16.77
2023-03-30T19:28:17.657Z,12.30
2023-03-30T19:30:45.679Z,10.23
2023-03-30T19:33:16.686Z,8.07
2023-03-30T19:35:47.530Z,6.70
2023-03-30T19:38:15.765Z,10.37
2023-03-30T19:40:43.419Z,4.87
2023-03-30T19:43:11.153Z,6.47
2023-03-30T19:45:41.169Z,5.77
2023-03-30T19:48:09.687Z,3.63
2023-03-30T19:50:40.807Z,4.00
2023-03-30T19:53:08.848Z,4.33
2023-03-30T19:55:37.714Z,5.73
2023-03-30T19:58:07.072Z,4.43
2023-03-30T20:00:35.171Z,4.17
2023-03-30T20:03:03.199Z,5.00
2023-03-30T20:05:31.316Z,5.17
2023-03-30T20:07:58.929Z,4.00
2023-03-30T20:10:26.905Z,5.37
2023-03-30T20:12:54.708Z,3.97
2023-03-30T20:15:25.024Z,3.37
2023-03-30T20:17:56.631Z,3.63
2023-03-30T20:20:28.005Z,3.33
2023-03-30T20:22:56.681Z,4.90
2023-03-30T20:25:24.881Z,3.17
2023-03-30T20:27:53.424Z,4.43
2023-03-30T20:30:21.816Z,6.20
2023-03-30T20:33:03.879Z,3.67
2023-03-30T20:35:37.584Z,3.67
2023-03-30T20:38:06.385Z,4.80
2023-03-30T20:40:34.104Z,3.57
2023-03-30T20:43:10.086Z,3.80
2023-03-30T20:45:46.322Z,4.07
2023-03-30T20:48:27.581Z,9.37
2023-03-30T20:50:56.245Z,4.70
2023-03-30T20:53:24.917Z,4.57
2023-03-30T20:55:52.596Z,5.27
2023-03-30T20:58:22.347Z,5.50
2023-03-30T21:00:52.172Z,4.90
2023-03-30T21:03:21.647Z,6.43
2023-03-30T21:05:59.463Z,6.10
2023-03-30T21:08:27.105Z,7.70
2023-03-30T21:10:54.902Z,6.53
2023-03-30T21:13:22.523Z,5.77
2023-03-30T21:16:05.125Z,6.63
2023-03-30T21:18:33.246Z,5.90
2023-03-30T21:21:01.480Z,5.60
2023-03-30T21:23:30.041Z,5.80
2023-03-30T21:26:02.994Z,4.80
2023-03-30T21:28:34.204Z,3.93
2023-03-30T21:31:05.690Z,5.10
2023-03-30T21:33:34.312Z,3.47
2023-03-30T21:36:02.262Z,3.93
2023-03-30T21:38:34.080Z,3.33
2023-03-30T21:41:08.601Z,4.27
2023-03-30T21:43:37.886Z,4.13
2023-03-30T21:46:08.037Z,4.37
2023-03-30T21:48:38.210Z,4.03
2023-03-30T21:51:17.002Z,4.03
2023-03-30T21:53:47.018Z,5.87
2023-03-30T21:56:15.629Z,8.27
2023-03-30T21:58:46.439Z,7.10
2023-03-30T22:01:14.374Z,6.97
2023-03-30T22:03:43.057Z,6.23
2023-03-30T22:06:13.344Z,4.67
2023-03-30T22:08:41.762Z,5.50
2023-03-30T22:11:13.264Z,4.23
2023-03-30T22:13:41.150Z,4.93
2023-03-30T22:16:13.371Z,5.77
2023-03-30T22:18:42.030Z,4.87
2023-03-30T22:21:13.230Z,5.47
2023-03-30T22:23:40.771Z,5.50
2023-03-30T22:26:08.417Z,5.03
2023-03-30T22:28:36.226Z,8.47
2023-03-30T22:31:10.424Z,5.93
2023-03-30T22:33:38.150Z,5.43
2023-03-30T22:36:07.559Z,5.00
2023-03-30T22:38:35.701Z,4.97
2023-03-30T22:41:07.378Z,7.30
2023-03-30T22:43:36.204Z,9.00
2023-03-30T22:46:05.633Z,6.30
2023-03-30T22:48:34.087Z,7.07
2023-03-30T22:51:08.358Z,8.50
2023-03-30T22:53:36.170Z,4.63
2023-03-30T22:56:04.072Z,4.50
2023-03-30T22:58:31.828Z,4.87
2023-03-30T23:01:04.072Z,5.23
2023-03-30T23:03:31.656Z,5.37
2023-03-30T23:06:02.175Z,3.73
2023-03-30T23:08:30.513Z,5.83
2023-03-30T23:11:04.647Z,4.53
2023-03-30T23:13:37.819Z,4.37
2023-03-30T23:16:09.092Z,4.20
2023-03-30T23:18:36.946Z,4.60
2023-03-30T23:21:11.167Z,3.90
2023-03-30T23:23:39.205Z,3.67
2023-03-30T23:26:11.447Z,4.07
2023-03-30T23:28:41.396Z,3.93
2023-03-30T23:31:15.040Z,5.53
2023-03-30T23:33:43.465Z,5.27
2023-03-30T23:36:17.379Z,4.03
2023-03-30T23:38:45.457Z,4.40
2023-03-30T23:41:14.922Z,7.33
2023-03-30T23:43:42.464Z,5.03
2023-03-30T23:46:10.818Z,4.97
2023-03-30T23:48:38.858Z,3.73
2023-03-30T23:51:07.174Z,3.63
2023-03-30T23:53:34.972Z,4.13
2023-03-30T23:56:06.649Z,3.80
2023-03-30T23:58:34.465Z,4.27
